Time;durP1;ratioP1;P1;durP2;ratioP2;P2;SDS_P1;SDS_P2;PMS_P1;PMS_P2;Temp;Humidity;BMP_temperature;BMP_pressure;BME280_temperature;BME280_humidity;BME280_pressure;Samples;Min_cycle;Max_cycle;Signal;HPM_P1;HPM_P2
2022/06/13 00:01:10;;;;;;;6.60;3.00;;;;;;;;;;4934295;29;20464;-76
2022/06/13 00:03:38;;;;;;;5.43;2.43;;;;;;;;;;4933240;29;20457;-76
2022/06/13 00:06:05;;;;;;;3.67;2.90;;;;;;;;;;4947235;28;20581;-75
2022/06/13 00:08:33;;;;;;;6.10;2.93;;;;;;;;;;4955128;28;20498;-75
2022/06/13 00:11:00;;;;;;;5.27;2.50;;;;;;;;;;4949748;28;20534;-76
2022/06/13 00:13:28;;;;;;;5.00;2.67;;;;;;;;;;4939399;29;20442;-76
2022/06/13 00:15:55;;;;;;;4.60;2.60;;;;;;;;;;4938395;28;20458;-76
2022/06/13 00:18:24;;;;;;;3.80;2.53;;;;;;;;;;4935820;29;20450;-75
2022/06/13 00:20:51;;;;;;;5.97;3.17;;;;;;;;;;4937163;29;20947;-76
2022/06/13 00:23:18;;;;;;;8.20;3.60;;;;;;;;;;4937645;29;20447;-75
2022/06/13 00:25:47;;;;;;;4.90;2.60;;;;;;;;;;4937782;29;20808;-75
2022/06/13 00:28:14;;;;;;;8.30;3.33;;;;;;;;;;4946237;29;20493;-76
2022/06/13 00:30:41;;;;;;;5.43;2.83;;;;;;;;;;4958474;28;20444;-76
2022/06/13 00:33:09;;;;;;;7.37;3.03;;;;;;;;;;4957768;28;20452;-76
2022/06/13 00:35:36;;;;;;;9.03;3.40;;;;;;;;;;4942580;28;20464;-76
2022/06/13 00:38:03;;;;;;;6.77;3.40;;;;;;;;;;4943417;29;20469;-77
2022/06/13 00:40:32;;;;;;;4.60;2.60;;;;;;;;;;4955723;28;20453;-76
2022/06/13 00:43:01;;;;;;;4.43;2.50;;;;;;;;;;4956037;29;20544;-76
2022/06/13 00:45:33;;;;;;;9.03;3.47;;;;;;;;;;4956239;28;20469;-76
2022/06/13 00:48:00;;;;;;;4.30;2.57;;;;;;;;;;4955242;28;20867;-76
2022/06/13 00:50:28;;;;;;;3.97;2.97;;;;;;;;;;4956397;28;20465;-77
2022/06/13 00:52:57;;;;;;;4.80;2.80;;;;;;;;;;4956956;29;20453;-76
2022/06/13 00:55:28;;;;;;;3.90;3.23;;;;;;;;;;4958089;28;20456;-76
2022/06/13 00:57:56;;;;;;;5.33;3.37;;;;;;;;;;4942719;29;20951;-77
2022/06/13 01:00:24;;;;;;;8.30;3.10;;;;;;;;;;4943265;28;20791;-76
2022/06/13 01:02:52;;;;;;;5.70;2.60;;;;;;;;;;4956124;28;20453;-76
2022/06/13 01:05:22;;;;;;;5.03;3.20;;;;;;;;;;4956078;29;20542;-76
2022/06/13 01:07:50;;;;;;;7.27;3.23;;;;;;;;;;4956312;28;20486;-76
2022/06/13 01:12:59;;;;;;;7.00;2.90;;;;;;;;;;4956093;28;20949;-77
2022/06/13 01:15:34;;;;;;;9.13;3.97;;;;;;;;;;4957881;28;20834;-77
2022/06/13 01:18:09;;;;;;;7.67;3.70;;;;;;;;;;4956728;28;20452;-76
2022/06/13 01:20:41;;;;;;;5.23;2.97;;;;;;;;;;4941868;29;20446;-77
2022/06/13 01:23:19;;;;;;;5.93;3.17;;;;;;;;;;4943758;29;20798;-77
2022/06/13 01:25:54;;;;;;;4.93;3.00;;;;;;;;;;4954983;28;20466;-76
2022/06/13 01:28:36;;;;;;;5.83;3.03;;;;;;;;;;4954607;28;21001;-76
2022/06/13 01:31:10;;;;;;;6.67;3.37;;;;;;;;;;4954556;29;20453;-76
2022/06/13 01:33:38;;;;;;;4.33;3.00;;;;;;;;;;4955662;29;20948;-76
2022/06/13 01:36:13;;;;;;;7.13;3.07;;;;;;;;;;4956039;29;20478;-77
2022/06/13 01:38:43;;;;;;;6.93;3.10;;;;;;;;;;4957174;28;20501;-77
2022/06/13 01:41:14;;;;;;;7.40;3.50;;;;;;;;;;4949642;28;20427;-76
2022/06/13 01:43:49;;;;;;;5.20;2.97;;;;;;;;;;4940722;29;20439;-76
2022/06/13 01:46:19;;;;;;;7.20;3.27;;;;;;;;;;4936481;29;20465;-77
2022/06/13 01:48:54;;;;;;;5.80;3.00;;;;;;;;;;4934507;29;20900;-76
2022/06/13 01:51:24;;;;;;;5.60;2.80;;;;;;;;;;4936049;29;20458;-76
2022/06/13 01:53:54;;;;;;;5.30;2.90;;;;;;;;;;4936125;29;20462;-76
2022/06/13 01:56:22;;;;;;;7.03;3.40;;;;;;;;;;4935805;29;20559;-76
2022/06/13 01:58:52;;;;;;;7.40;3.40;;;;;;;;;;4942115;28;20534;-76
2022/06/13 02:01:25;;;;;;;5.53;3.20;;;;;;;;;;4940224;29;21064;-76
2022/06/13 02:03:55;;;;;;;5.57;3.30;;;;;;;;;;4936869;29;20459;-76
2022/06/13 02:06:26;;;;;;;5.27;3.60;;;;;;;;;;4936672;28;20469;-76
2022/06/13 02:08:55;;;;;;;4.57;3.27;;;;;;;;;;4953253;28;21185;-76
2022/06/13 02:11:25;;;;;;;4.47;3.10;;;;;;;;;;4955216;29;20450;-76
2022/06/13 02:13:56;;;;;;;9.77;3.93;;;;;;;;;;4954457;29;20819;-75
2022/06/13 02:16:27;;;;;;;4.70;3.27;;;;;;;;;;4938446;29;20811;-76
2022/06/13 02:18:57;;;;;;;6.27;3.43;;;;;;;;;;4956272;28;20549;-76
2022/06/13 02:21:29;;;;;;;5.33;3.13;;;;;;;;;;4945608;28;20842;-76
2022/06/13 02:23:59;;;;;;;6.10;3.40;;;;;;;;;;4941006;29;20458;-76
2022/06/13 02:26:30;;;;;;;5.30;3.17;;;;;;;;;;4936153;29;20465;-76
2022/06/13 02:28:59;;;;;;;6.87;3.50;;;;;;;;;;4937154;29;20574;-76
2022/06/13 02:31:30;;;;;;;8.37;3.83;;;;;;;;;;4934927;29;20797;-75
2022/06/13 02:34:00;;;;;;;6.03;3.13;;;;;;;;;;4935771;29;20469;-75
2022/06/13 02:36:30;;;;;;;5.33;3.90;;;;;;;;;;4935212;29;20475;-76
2022/06/13 02:39:00;;;;;;;5.70;3.60;;;;;;;;;;4936681;29;20569;-76
2022/06/13 02:41:32;;;;;;;4.90;3.50;;;;;;;;;;4936322;29;20440;-76
2022/06/13 02:44:01;;;;;;;8.80;3.50;;;;;;;;;;4942217;28;20442;-76
2022/06/13 02:46:33;;;;;;;8.27;4.03;;;;;;;;;;4940287;29;20447;-76
2022/06/13 02:49:03;;;;;;;6.37;3.63;;;;;;;;;;4935664;29;20542;-75
2022/06/13 02:51:35;;;;;;;9.90;4.10;;;;;;;;;;4934438;29;20928;-75
2022/06/13 02:54:08;;;;;;;7.10;4.10;;;;;;;;;;4934835;29;20453;-75
2022/06/13 02:57:23;;;;;;;7.17;3.87;;;;;;;;;;4952142;28;20457;-76
2022/06/13 02:59:29;;;;;;;5.37;3.80;;;;;;;;;;4952750;28;20454;-76
2022/06/13 03:02:01;;;;;;;7.03;3.97;;;;;;;;;;4955747;28;20443;-75
2022/06/13 03:04:38;;;;;;;8.83;3.93;;;;;;;;;;4955951;28;20439;-76
2022/06/13 03:07:08;;;;;;;7.33;3.77;;;;;;;;;;4939971;29;20459;-77
2022/06/13 03:09:38;;;;;;;5.67;4.13;;;;;;;;;;4939838;28;20484;-76
2022/06/13 03:12:08;;;;;;;13.03;4.53;;;;;;;;;;4933600;29;20469;-75
2022/06/13 03:14:39;;;;;;;6.10;3.83;;;;;;;;;;4934313;29;20450;-75
2022/06/13 03:17:14;;;;;;;7.53;4.07;;;;;;;;;;4934583;29;20872;-76
2022/06/13 03:19:43;;;;;;;6.97;4.13;;;;;;;;;;4934834;29;20464;-75
2022/06/13 03:22:14;;;;;;;7.30;4.50;;;;;;;;;;4941247;29;20533;-76
2022/06/13 03:24:45;;;;;;;7.43;4.23;;;;;;;;;;4955639;28;20444;-75
2022/06/13 03:27:15;;;;;;;5.30;3.97;;;;;;;;;;4952561;29;20464;-75
2022/06/13 03:29:46;;;;;;;5.33;4.20;;;;;;;;;;4939793;29;20565;-76
2022/06/13 03:32:16;;;;;;;11.30;5.03;;;;;;;;;;4943341;28;20460;-75
2022/06/13 03:34:45;;;;;;;7.40;4.07;;;;;;;;;;4952314;29;20544;-75
2022/06/13 03:37:15;;;;;;;6.33;3.63;;;;;;;;;;4951883;28;20979;-75
2022/06/13 03:39:45;;;;;;;7.23;4.30;;;;;;;;;;4953452;28;20545;-75
2022/06/13 03:42:14;;;;;;;13.70;4.90;;;;;;;;;;4953745;28;20868;-74
2022/06/13 03:44:44;;;;;;;8.30;4.67;;;;;;;;;;4953759;28;20465;-75
2022/06/13 03:47:14;;;;;;;8.10;5.03;;;;;;;;;;4954075;29;21009;-75
2022/06/13 03:49:46;;;;;;;5.67;4.13;;;;;;;;;;4950737;28;20496;-74
2022/06/13 03:52:14;;;;;;;7.77;4.47;;;;;;;;;;4941893;28;20440;-75
2022/06/13 03:54:44;;;;;;;10.60;4.63;;;;;;;;;;4947972;28;20449;-75
2022/06/13 03:57:16;;;;;;;7.97;4.20;;;;;;;;;;4956982;28;20466;-77
2022/06/13 03:59:47;;;;;;;10.40;4.80;;;;;;;;;;4956882;29;20447;-76
2022/06/13 04:02:16;;;;;;;8.43;4.77;;;;;;;;;;4956855;29;20813;-76
2022/06/13 04:04:46;;;;;;;5.77;3.53;;;;;;;;;;4957525;28;20440;-76
2022/06/13 04:07:13;;;;;;;6.70;3.53;;;;;;;;;;4957594;28;20466;-76
2022/06/13 04:09:41;;;;;;;8.50;4.80;;;;;;;;;;4958972;29;20496;-76
2022/06/13 04:12:19;;;;;;;6.60;3.93;;;;;;;;;;4953361;29;20453;-76
2022/06/13 04:14:54;;;;;;;7.00;3.67;;;;;;;;;;4943091;29;20451;-77
2022/06/13 04:17:23;;;;;;;9.10;4.10;;;;;;;;;;4940060;29;20476;-76
2022/06/13 04:19:55;;;;;;;8.47;4.47;;;;;;;;;;4937408;29;20452;-76
2022/06/13 04:22:24;;;;;;;9.07;4.13;;;;;;;;;;4937345;29;20443;-75
2022/06/13 04:24:57;;;;;;;10.13;4.30;;;;;;;;;;4937436;29;20442;-76
2022/06/13 04:27:25;;;;;;;7.13;4.00;;;;;;;;;;4936390;29;20467;-76
2022/06/13 04:29:57;;;;;;;8.20;3.77;;;;;;;;;;4952837;28;20493;-76
2022/06/13 04:32:30;;;;;;;9.40;4.40;;;;;;;;;;4958634;28;20820;-77
2022/06/13 04:34:59;;;;;;;5.90;3.43;;;;;;;;;;4949980;28;20440;-76
2022/06/13 04:37:26;;;;;;;7.30;3.70;;;;;;;;;;4942259;28;20597;-76
2022/06/13 04:39:58;;;;;;;6.70;4.30;;;;;;;;;;4950367;28;20455;-76
2022/06/13 04:42:26;;;;;;;5.93;4.23;;;;;;;;;;4956196;28;20473;-76
2022/06/13 04:44:54;;;;;;;9.97;4.60;;;;;;;;;;4956093;29;20445;-75
2022/06/13 04:47:22;;;;;;;6.87;3.93;;;;;;;;;;4956246;29;20554;-76
2022/06/13 04:49:52;;;;;;;6.33;3.80;;;;;;;;;;4956231;29;20489;-75
2022/06/13 04:52:24;;;;;;;6.03;3.50;;;;;;;;;;4957232;28;20458;-76
2022/06/13 04:54:55;;;;;;;6.07;4.03;;;;;;;;;;4957963;28;20922;-75
2022/06/13 04:57:23;;;;;;;6.33;4.03;;;;;;;;;;4946955;29;20966;-76
2022/06/13 04:59:50;;;;;;;4.13;2.80;;;;;;;;;;4942486;29;20911;-76
2022/06/13 05:02:19;;;;;;;5.30;3.83;;;;;;;;;;4951389;28;20467;-76
2022/06/13 05:04:46;;;;;;;5.77;3.80;;;;;;;;;;4954758;28;20801;-76
2022/06/13 05:07:14;;;;;;;5.47;3.30;;;;;;;;;;4955900;29;20467;-76
2022/06/13 05:09:44;;;;;;;8.07;3.80;;;;;;;;;;4956059;28;20846;-76
2022/06/13 05:12:14;;;;;;;6.43;4.00;;;;;;;;;;4955885;28;20520;-76
2022/06/13 05:14:46;;;;;;;4.50;3.17;;;;;;;;;;4955923;28;20465;-76
2022/06/13 05:17:23;;;;;;;11.10;3.60;;;;;;;;;;4956627;28;20466;-76
2022/06/13 05:19:57;;;;;;;6.77;3.57;;;;;;;;;;4945135;28;20441;-76
2022/06/13 05:22:34;;;;;;;5.13;3.43;;;;;;;;;;4941958;29;20434;-76
2022/06/13 05:25:16;;;;;;;12.00;4.30;;;;;;;;;;4954223;28;20460;-76
2022/06/13 05:27:45;;;;;;;9.23;4.00;;;;;;;;;;4954003;28;20461;-75
2022/06/13 05:30:14;;;;;;;5.77;3.10;;;;;;;;;;4955510;28;20503;-75
2022/06/13 05:32:41;;;;;;;7.40;3.50;;;;;;;;;;4955931;29;20471;-75
2022/06/13 05:35:13;;;;;;;7.90;3.57;;;;;;;;;;4955207;28;20799;-75
2022/06/13 05:37:40;;;;;;;5.67;4.10;;;;;;;;;;4945592;28;20477;-75
2022/06/13 05:40:07;;;;;;;7.50;4.07;;;;;;;;;;4941585;29;20434;-75
2022/06/13 05:42:35;;;;;;;9.83;4.10;;;;;;;;;;4951461;28;20438;-76
2022/06/13 05:45:03;;;;;;;6.57;3.80;;;;;;;;;;4954936;29;20444;-75
2022/06/13 05:47:30;;;;;;;6.67;4.00;;;;;;;;;;4955087;28;20442;-75
2022/06/13 05:49:57;;;;;;;6.13;3.87;;;;;;;;;;4955356;28;20504;-75
2022/06/13 05:52:25;;;;;;;11.07;5.57;;;;;;;;;;4954964;28;20803;-75
2022/06/13 05:54:52;;;;;;;10.23;3.93;;;;;;;;;;4956816;28;20825;-75
2022/06/13 05:57:19;;;;;;;6.17;3.63;;;;;;;;;;4957004;28;20462;-75
2022/06/13 05:59:46;;;;;;;6.67;4.00;;;;;;;;;;4945813;28;20438;-75
2022/06/13 06:02:15;;;;;;;12.20;4.80;;;;;;;;;;4941181;28;20446;-75
2022/06/13 06:04:42;;;;;;;8.53;3.93;;;;;;;;;;4936722;29;20434;-75
2022/06/13 06:07:09;;;;;;;6.67;3.80;;;;;;;;;;4935030;29;20475;-75
2022/06/13 06:09:36;;;;;;;8.03;3.70;;;;;;;;;;4935374;29;20501;-76
2022/06/13 06:12:04;;;;;;;7.53;4.30;;;;;;;;;;4935974;29;20531;-75
2022/06/13 06:14:31;;;;;;;6.67;3.73;;;;;;;;;;4935482;29;20442;-76
2022/06/13 06:16:58;;;;;;;7.97;4.27;;;;;;;;;;4954058;28;20452;-75
2022/06/13 06:19:27;;;;;;;7.70;4.23;;;;;;;;;;4956616;28;20452;-76
2022/06/13 06:21:54;;;;;;;10.30;4.33;;;;;;;;;;4947451;28;20429;-76
2022/06/13 06:24:21;;;;;;;8.63;3.97;;;;;;;;;;4941120;29;20415;-75
2022/06/13 06:26:48;;;;;;;8.70;4.50;;;;;;;;;;4948436;28;20465;-74
2022/06/13 06:29:15;;;;;;;4.63;3.67;;;;;;;;;;4954143;29;20473;-75
2022/06/13 06:31:43;;;;;;;7.37;4.07;;;;;;;;;;4954179;28;20521;-74
2022/06/13 06:34:10;;;;;;;10.37;4.50;;;;;;;;;;4954226;28;20559;-74
2022/06/13 06:36:38;;;;;;;7.30;3.70;;;;;;;;;;4954569;28;20908;-75
2022/06/13 06:39:05;;;;;;;9.27;4.00;;;;;;;;;;4955142;29;20816;-74
2022/06/13 06:41:33;;;;;;;7.43;4.00;;;;;;;;;;4956447;29;20514;-74
2022/06/13 06:44:00;;;;;;;10.37;4.30;;;;;;;;;;4950034;28;20405;-74
2022/06/13 06:46:27;;;;;;;10.23;3.60;;;;;;;;;;4940505;28;20559;-74
2022/06/13 06:48:55;;;;;;;13.20;4.40;;;;;;;;;;4937687;29;20493;-74
2022/06/13 06:51:22;;;;;;;7.57;3.40;;;;;;;;;;4934934;29;20445;-75
2022/06/13 07:01:54;;;;;;;8.73;4.47;;;;;;;;;;4952529;28;20487;-74
2022/06/13 07:04:22;;;;;;;5.90;3.80;;;;;;;;;;4955859;29;20533;-74
2022/06/13 07:06:49;;;;;;;3.57;2.50;;;;;;;;;;4946618;28;20474;-74
2022/06/13 07:09:18;;;;;;;11.37;4.27;;;;;;;;;;4940147;29;20497;-74
2022/06/13 07:14:28;;;;;;;8.77;4.33;;;;;;;;;;4952197;28;20967;-74
2022/06/13 07:16:55;;;;;;;8.10;3.77;;;;;;;;;;4953455;28;20470;-73
2022/06/13 07:19:23;;;;;;;14.43;4.27;;;;;;;;;;4954123;28;20456;-73
2022/06/13 07:21:50;;;;;;;6.93;4.00;;;;;;;;;;4953396;28;20450;-74
2022/06/13 07:24:20;;;;;;;7.17;3.43;;;;;;;;;;4954832;28;20489;-75
2022/06/13 07:26:48;;;;;;;10.43;4.13;;;;;;;;;;4955112;29;20552;-74
2022/06/13 07:29:16;;;;;;;6.30;3.67;;;;;;;;;;4946313;28;20831;-74
2022/06/13 07:31:45;;;;;;;6.93;3.47;;;;;;;;;;4940117;29;20803;-75
2022/06/13 07:34:14;;;;;;;7.40;3.50;;;;;;;;;;4935951;29;20439;-75
2022/06/13 07:36:41;;;;;;;10.67;4.17;;;;;;;;;;4933866;29;20477;-74
2022/06/13 07:39:09;;;;;;;8.00;3.70;;;;;;;;;;4933801;29;20470;-74
2022/06/13 07:41:38;;;;;;;6.40;4.00;;;;;;;;;;4934604;29;20546;-76
2022/06/13 07:44:06;;;;;;;9.27;4.87;;;;;;;;;;4934325;29;20545;-75
2022/06/13 07:46:33;;;;;;;9.10;4.13;;;;;;;;;;4952492;28;20469;-75
2022/06/13 07:49:01;;;;;;;6.37;3.83;;;;;;;;;;4955261;28;20445;-75
2022/06/13 07:51:29;;;;;;;8.93;5.30;;;;;;;;;;4946661;28;20517;-75
2022/06/13 07:53:56;;;;;;;7.90;6.40;;;;;;;;;;4938751;29;20438;-76
2022/06/13 07:56:25;;;;;;;11.40;5.30;;;;;;;;;;4946946;28;20917;-75
2022/06/13 07:58:54;;;;;;;12.00;6.00;;;;;;;;;;4951954;28;20446;-73
2022/06/13 08:01:21;;;;;;;8.33;4.40;;;;;;;;;;4953095;28;20459;-74
2022/06/13 08:03:49;;;;;;;11.10;5.77;;;;;;;;;;4953104;29;20468;-74
2022/06/13 08:06:16;;;;;;;10.87;4.80;;;;;;;;;;4953203;28;21000;-74
2022/06/13 08:08:45;;;;;;;10.20;5.03;;;;;;;;;;4954298;29;20518;-74
2022/06/13 08:11:13;;;;;;;10.13;5.00;;;;;;;;;;4955149;28;20600;-75
2022/06/13 08:13:41;;;;;;;10.43;5.40;;;;;;;;;;4947226;29;20529;-74
2022/06/13 08:16:10;;;;;;;9.63;5.27;;;;;;;;;;4939596;29;20458;-75
2022/06/13 08:18:38;;;;;;;10.23;4.97;;;;;;;;;;4936078;28;20448;-74
2022/06/13 08:21:06;;;;;;;9.03;5.73;;;;;;;;;;4933818;29;21031;-75
2022/06/13 08:23:33;;;;;;;11.57;6.67;;;;;;;;;;4933736;29;20446;-74
2022/06/13 08:26:01;;;;;;;10.63;5.90;;;;;;;;;;4934185;29;20976;-74
2022/06/13 08:28:28;;;;;;;9.50;6.47;;;;;;;;;;4934132;29;20443;-75
2022/06/13 08:30:57;;;;;;;12.87;7.17;;;;;;;;;;4949887;28;20846;-75
2022/06/13 08:33:26;;;;;;;13.53;6.80;;;;;;;;;;4955380;28;20994;-74
2022/06/13 08:35:53;;;;;;;13.13;7.07;;;;;;;;;;4947364;28;20547;-74
2022/06/13 08:38:21;;;;;;;9.63;7.13;;;;;;;;;;4938807;28;20823;-75
2022/06/13 08:40:55;;;;;;;11.77;7.07;;;;;;;;;;4938416;28;20660;-74
2022/06/13 08:43:34;;;;;;;9.20;6.30;;;;;;;;;;4935727;29;20442;-74
2022/06/13 08:46:06;;;;;;;11.10;5.63;;;;;;;;;;4937015;29;20475;-74
2022/06/13 08:48:38;;;;;;;9.70;5.10;;;;;;;;;;4937417;29;20453;-74
2022/06/13 08:51:09;;;;;;;8.57;5.50;;;;;;;;;;4935765;29;20492;-75
2022/06/13 08:53:38;;;;;;;10.97;6.80;;;;;;;;;;4956717;28;20470;-75
2022/06/13 08:56:07;;;;;;;10.20;5.43;;;;;;;;;;4958183;28;20561;-74
2022/06/13 08:58:36;;;;;;;12.30;5.97;;;;;;;;;;4948626;29;20435;-75
2022/06/13 09:01:07;;;;;;;11.13;5.17;;;;;;;;;;4942791;29;20442;-74
2022/06/13 09:03:38;;;;;;;10.70;5.77;;;;;;;;;;4938293;29;20473;-76
2022/06/13 09:06:11;;;;;;;10.60;6.17;;;;;;;;;;4936526;29;20984;-74
2022/06/13 09:08:42;;;;;;;8.93;4.50;;;;;;;;;;4935576;29;20443;-75
2022/06/13 09:11:15;;;;;;;11.07;5.43;;;;;;;;;;4937219;29;20494;-76
2022/06/13 09:13:45;;;;;;;12.20;5.87;;;;;;;;;;4936489;29;20442;-75
2022/06/13 09:16:15;;;;;;;9.40;4.83;;;;;;;;;;4956533;29;20473;-75
2022/06/13 09:18:48;;;;;;;7.57;4.93;;;;;;;;;;4957697;29;20453;-75
2022/06/13 09:21:17;;;;;;;11.90;5.87;;;;;;;;;;4946748;28;20442;-75
2022/06/13 09:23:50;;;;;;;10.03;5.27;;;;;;;;;;4942144;29;20447;-75
2022/06/13 09:26:18;;;;;;;14.60;5.77;;;;;;;;;;4952267;28;20544;-75
2022/06/13 09:28:48;;;;;;;8.03;4.60;;;;;;;;;;4955092;28;20923;-76
2022/06/13 09:31:20;;;;;;;10.60;4.80;;;;;;;;;;4953828;29;20491;-76
2022/06/13 09:33:50;;;;;;;7.63;4.40;;;;;;;;;;4954901;29;20442;-75
2022/06/13 09:36:19;;;;;;;9.50;4.63;;;;;;;;;;4954883;28;20561;-75
2022/06/13 09:38:48;;;;;;;11.07;5.17;;;;;;;;;;4956114;28;20979;-75
2022/06/13 09:41:22;;;;;;;13.77;6.10;;;;;;;;;;4957310;28;20574;-74
2022/06/13 09:43:58;;;;;;;8.10;5.77;;;;;;;;;;4943051;29;20791;-74
2022/06/13 09:46:30;;;;;;;9.03;5.17;;;;;;;;;;4941347;29;20962;-74
2022/06/13 09:49:04;;;;;;;9.87;4.97;;;;;;;;;;4935420;29;20542;-75
2022/06/13 09:51:39;;;;;;;11.67;5.70;;;;;;;;;;4935557;29;20497;-74
2022/06/13 09:54:16;;;;;;;9.53;4.20;;;;;;;;;;4935731;29;20442;-74
2022/06/13 09:56:48;;;;;;;14.73;5.37;;;;;;;;;;4936234;29;20834;-75
2022/06/13 09:59:22;;;;;;;10.57;5.43;;;;;;;;;;4943040;29;20453;-76
2022/06/13 10:01:53;;;;;;;11.73;5.07;;;;;;;;;;4956941;29;20446;-75
2022/06/13 10:04:28;;;;;;;10.93;4.80;;;;;;;;;;4955090;28;20447;-76
2022/06/13 10:06:58;;;;;;;10.80;5.20;;;;;;;;;;4940907;29;20458;-75
2022/06/13 10:09:32;;;;;;;15.03;5.67;;;;;;;;;;4943087;28;20434;-76
2022/06/13 10:12:04;;;;;;;9.43;4.37;;;;;;;;;;4954554;28;20443;-75
2022/06/13 10:14:39;;;;;;;12.07;5.07;;;;;;;;;;4953084;28;20528;-75
2022/06/13 10:17:10;;;;;;;7.97;4.53;;;;;;;;;;4954378;28;20472;-76
2022/06/13 10:19:43;;;;;;;10.00;5.30;;;;;;;;;;4955220;29;20438;-75
2022/06/13 10:22:13;;;;;;;12.23;5.50;;;;;;;;;;4955281;28;20494;-75
2022/06/13 10:24:44;;;;;;;10.00;4.47;;;;;;;;;;4956561;28;20460;-75
2022/06/13 10:27:16;;;;;;;11.40;4.97;;;;;;;;;;4951654;29;20463;-75
2022/06/13 10:29:55;;;;;;;10.80;4.80;;;;;;;;;;4940615;29;20524;-75
2022/06/13 10:32:28;;;;;;;11.63;4.20;;;;;;;;;;4946620;28;20445;-75
2022/06/13 10:35:03;;;;;;;13.60;4.27;;;;;;;;;;4954273;29;20793;-75
2022/06/13 10:37:36;;;;;;;7.63;3.97;;;;;;;;;;4953816;28;20469;-75
2022/06/13 10:40:05;;;;;;;10.53;4.50;;;;;;;;;;4954206;28;20827;-75
2022/06/13 10:42:34;;;;;;;10.87;5.23;;;;;;;;;;4954493;29;20473;-75
2022/06/13 10:45:01;;;;;;;12.60;4.43;;;;;;;;;;4955297;29;20528;-75
2022/06/13 10:47:31;;;;;;;8.00;4.30;;;;;;;;;;4956107;28;20890;-75
2022/06/13 10:50:01;;;;;;;10.40;4.30;;;;;;;;;;4941827;29;20904;-75
2022/06/13 10:52:32;;;;;;;11.33;4.77;;;;;;;;;;4934987;28;20461;-75
2022/06/13 10:55:03;;;;;;;10.87;4.33;;;;;;;;;;4948362;28;20492;-75
2022/06/13 10:57:32;;;;;;;7.60;3.77;;;;;;;;;;4952487;28;20449;-75
2022/06/13 11:00:14;;;;;;;7.80;3.83;;;;;;;;;;4952456;28;20807;-75
2022/06/13 11:02:41;;;;;;;10.10;4.17;;;;;;;;;;4953347;28;20875;-75
2022/06/13 11:05:11;;;;;;;8.33;4.37;;;;;;;;;;4953254;28;20450;-75
2022/06/13 11:07:44;;;;;;;5.53;3.37;;;;;;;;;;4937441;29;20426;-75
2022/06/13 11:10:19;;;;;;;7.53;3.20;;;;;;;;;;4940084;28;20486;-75
2022/06/13 11:12:50;;;;;;;7.83;2.83;;;;;;;;;;4937376;29;20924;-75
2022/06/13 11:23:29;;;;;;;5.77;3.30;;;;;;;;;;4935727;28;20470;-74
2022/06/13 11:25:57;;;;;;;6.03;2.70;;;;;;;;;;4955367;29;20461;-73
2022/06/13 11:28:27;;;;;;;7.10;4.00;;;;;;;;;;4954390;28;20437;-75
2022/06/13 11:31:03;;;;;;;7.27;3.00;;;;;;;;;;4945628;28;20896;-75
2022/06/13 11:33:32;;;;;;;8.57;3.70;;;;;;;;;;4938746;29;20435;-74
2022/06/13 11:36:03;;;;;;;6.30;3.60;;;;;;;;;;4934442;29;20470;-75
2022/06/13 11:38:31;;;;;;;4.40;2.63;;;;;;;;;;4932605;29;20562;-75
2022/06/13 11:41:02;;;;;;;7.03;3.23;;;;;;;;;;4929429;29;20542;-74
2022/06/13 11:43:35;;;;;;;12.43;3.70;;;;;;;;;;4931605;29;20533;-74
2022/06/13 11:46:04;;;;;;;5.60;3.30;;;;;;;;;;4931274;29;20470;-74
2022/06/13 11:48:31;;;;;;;8.67;3.47;;;;;;;;;;4950494;29;20453;-75
2022/06/13 11:51:01;;;;;;;8.10;3.03;;;;;;;;;;4951226;28;21113;-74
2022/06/13 11:53:37;;;;;;;5.07;2.90;;;;;;;;;;4940585;28;20454;-75
2022/06/13 11:56:06;;;;;;;7.00;3.03;;;;;;;;;;4936165;29;20458;-75
2022/06/13 11:58:37;;;;;;;13.43;3.67;;;;;;;;;;4931987;29;20908;-75
2022/06/13 12:01:11;;;;;;;5.67;3.20;;;;;;;;;;4929588;29;20944;-74
2022/06/13 12:03:38;;;;;;;5.90;3.00;;;;;;;;;;4929111;29;20438;-75
2022/06/13 12:06:09;;;;;;;6.17;2.60;;;;;;;;;;4931194;29;20470;-74
2022/06/13 12:08:37;;;;;;;4.90;2.60;;;;;;;;;;4930977;29;21100;-74
2022/06/13 12:11:06;;;;;;;8.40;2.90;;;;;;;;;;4951452;28;20879;-74
2022/06/13 12:13:35;;;;;;;5.10;2.33;;;;;;;;;;4952819;28;20445;-75
2022/06/13 12:16:09;;;;;;;7.50;2.87;;;;;;;;;;4945217;28;20457;-75
2022/06/13 12:18:40;;;;;;;5.87;3.03;;;;;;;;;;4939800;28;20444;-73
2022/06/13 12:21:11;;;;;;;7.37;2.97;;;;;;;;;;4948520;28;20549;-74
2022/06/13 12:23:43;;;;;;;5.70;3.00;;;;;;;;;;4953069;28;20456;-75
2022/06/13 12:26:14;;;;;;;4.60;2.87;;;;;;;;;;4952535;28;20480;-74
2022/06/13 12:28:46;;;;;;;7.70;3.07;;;;;;;;;;4937256;28;20452;-75
2022/06/13 12:31:15;;;;;;;4.27;2.73;;;;;;;;;;4933840;28;20501;-75
2022/06/13 12:33:48;;;;;;;6.97;3.40;;;;;;;;;;4948234;28;20590;-74
2022/06/13 12:36:21;;;;;;;4.83;2.87;;;;;;;;;;4939070;28;20865;-75
2022/06/13 12:38:56;;;;;;;5.47;2.53;;;;;;;;;;4936126;28;20466;-74
2022/06/13 12:41:28;;;;;;;4.70;2.60;;;;;;;;;;4950391;28;20747;-74
2022/06/13 12:44:04;;;;;;;5.90;2.93;;;;;;;;;;4951512;28;20441;-74
2022/06/13 12:46:35;;;;;;;6.43;3.07;;;;;;;;;;4952454;28;20552;-75
2022/06/13 12:49:11;;;;;;;7.30;3.33;;;;;;;;;;4951563;28;20456;-74
2022/06/13 12:51:44;;;;;;;8.90;3.40;;;;;;;;;;4953058;28;20940;-74
2022/06/13 12:54:23;;;;;;;4.10;2.63;;;;;;;;;;4939964;29;20449;-74
2022/06/13 12:56:53;;;;;;;8.03;2.47;;;;;;;;;;4939497;29;20472;-74
2022/06/13 12:59:27;;;;;;;6.10;2.57;;;;;;;;;;4952379;29;20478;-75
2022/06/13 13:02:01;;;;;;;5.33;2.53;;;;;;;;;;4952527;28;20981;-74
2022/06/13 13:04:43;;;;;;;6.10;2.87;;;;;;;;;;4952258;29;20675;-74
2022/06/13 13:07:14;;;;;;;6.30;2.73;;;;;;;;;;4951308;29;20521;-75
2022/06/13 13:09:50;;;;;;;9.63;3.07;;;;;;;;;;4951602;28;20461;-74
2022/06/13 13:12:26;;;;;;;4.47;2.43;;;;;;;;;;4953876;28;20601;-74
2022/06/13 13:14:58;;;;;;;4.13;2.67;;;;;;;;;;4951582;28;20449;-75
2022/06/13 13:17:31;;;;;;;5.20;2.53;;;;;;;;;;4937766;28;20471;-76
2022/06/13 13:20:02;;;;;;;5.00;2.53;;;;;;;;;;4941618;29;20446;-75
2022/06/13 13:22:31;;;;;;;4.70;2.43;;;;;;;;;;4952145;29;20449;-75
2022/06/13 13:25:06;;;;;;;4.27;2.40;;;;;;;;;;4950082;28;20453;-75
2022/06/13 13:27:38;;;;;;;2.97;2.10;;;;;;;;;;4936171;29;20450;-75
2022/06/13 13:30:13;;;;;;;2.97;2.00;;;;;;;;;;4933472;29;20809;-75
2022/06/13 13:32:44;;;;;;;5.80;2.30;;;;;;;;;;4946073;29;20854;-75
2022/06/13 13:35:17;;;;;;;2.77;1.80;;;;;;;;;;4953420;28;20943;-75
2022/06/13 13:37:46;;;;;;;3.07;1.80;;;;;;;;;;4949060;29;20466;-75
2022/06/13 13:40:17;;;;;;;3.00;2.03;;;;;;;;;;4937566;29;20817;-75
2022/06/13 13:42:47;;;;;;;6.13;2.03;;;;;;;;;;4940313;29;20528;-75
2022/06/13 13:45:35;;;;;;;5.00;2.17;;;;;;;;;;4951676;28;20454;-76
2022/06/13 13:48:05;;;;;;;5.20;2.07;;;;;;;;;;4951468;29;20438;-75
2022/06/13 13:50:36;;;;;;;2.87;1.63;;;;;;;;;;4951794;29;20453;-76
2022/06/13 13:53:07;;;;;;;4.20;2.00;;;;;;;;;;4951324;28;20850;-75
2022/06/13 13:55:39;;;;;;;3.67;2.33;;;;;;;;;;4951088;29;20837;-75
2022/06/13 13:58:11;;;;;;;4.83;1.90;;;;;;;;;;4953041;28;20468;-75
2022/06/13 14:00:43;;;;;;;4.20;2.10;;;;;;;;;;4948260;29;20517;-75
2022/06/13 14:03:15;;;;;;;4.23;2.43;;;;;;;;;;4937703;29;20530;-76
2022/06/13 14:05:45;;;;;;;5.30;2.27;;;;;;;;;;4942236;28;20553;-76
2022/06/13 14:08:13;;;;;;;4.23;2.47;;;;;;;;;;4951503;28;20449;-75
2022/06/13 14:10:45;;;;;;;5.50;2.90;;;;;;;;;;4951301;28;20544;-76
2022/06/13 14:13:13;;;;;;;4.47;2.20;;;;;;;;;;4951507;28;20485;-74
2022/06/13 14:16:01;;;;;;;2.40;2.17;;;;;;;;;;4949922;29;20481;-74
2022/06/13 14:18:30;;;;;;;3.73;2.00;;;;;;;;;;4951708;28;20983;-74
2022/06/13 14:20:58;;;;;;;4.50;2.80;;;;;;;;;;4954633;28;20454;-75
2022/06/13 14:23:33;;;;;;;3.70;2.33;;;;;;;;;;4950768;28;20446;-75
2022/06/13 14:26:01;;;;;;;5.93;1.97;;;;;;;;;;4940842;29;20456;-75
2022/06/13 14:28:44;;;;;;;3.73;2.00;;;;;;;;;;4938117;28;20445;-75
2022/06/13 14:31:11;;;;;;;3.50;2.30;;;;;;;;;;4933790;29;20567;-75
2022/06/13 14:36:50;;;;;;;2.53;1.70;;;;;;;;;;4934285;29;20482;-75
2022/06/13 14:39:20;;;;;;;2.57;2.10;;;;;;;;;;4934804;28;20474;-75
2022/06/13 14:41:50;;;;;;;4.87;1.80;;;;;;;;;;4955804;29;20807;-75
2022/06/13 14:44:22;;;;;;;5.20;2.23;;;;;;;;;;4951509;29;20538;-75
2022/06/13 14:47:02;;;;;;;4.60;2.20;;;;;;;;;;4938930;29;20468;-76
2022/06/13 14:49:35;;;;;;;2.67;2.10;;;;;;;;;;4940473;28;20437;-76
2022/06/13 14:52:10;;;;;;;3.23;1.83;;;;;;;;;;4935649;29;20474;-76
2022/06/13 14:54:39;;;;;;;3.87;2.00;;;;;;;;;;4934705;29;20533;-71
2022/06/13 14:57:21;;;;;;;4.37;1.87;;;;;;;;;;4934490;29;20470;-74
2022/06/13 15:00:03;;;;;;;5.97;2.20;;;;;;;;;;4934422;29;20446;-77
2022/06/13 15:02:33;;;;;;;2.93;1.77;;;;;;;;;;4938747;29;20548;-75
2022/06/13 15:05:01;;;;;;;3.30;1.50;;;;;;;;;;4955970;29;20437;-74
2022/06/13 15:07:42;;;;;;;5.53;2.00;;;;;;;;;;4951570;28;20493;-74
2022/06/13 15:10:15;;;;;;;3.80;2.10;;;;;;;;;;4939398;29;20577;-74
2022/06/13 15:12:44;;;;;;;6.33;2.37;;;;;;;;;;4940003;28;20485;-74
2022/06/13 15:15:18;;;;;;;4.10;2.00;;;;;;;;;;4934784;29;20443;-74
2022/06/13 15:17:46;;;;;;;5.33;2.37;;;;;;;;;;4934304;29;20454;-74
2022/06/13 15:20:15;;;;;;;6.27;2.10;;;;;;;;;;4934513;29;20539;-74
2022/06/13 15:22:46;;;;;;;2.40;2.10;;;;;;;;;;4933769;29;20816;-74
2022/06/13 15:25:13;;;;;;;6.60;2.00;;;;;;;;;;4936363;28;20477;-74